sensor_id;sensor_type;location;lat;lon;timestamp;P1;durP1;ratioP1;P2;durP2;ratioP2
2750;SDS011;1383;48.362;10.908;2023-06-26T00:00:53;11.43;;;9.30;;
2750;SDS011;1383;48.362;10.908;2023-06-26T00:03:20;12.33;;;9.00;;
2750;SDS011;1383;48.362;10.908;2023-06-26T00:05:47;11.80;;;10.40;;
2750;SDS011;1383;48.362;10.908;2023-06-26T00:08:13;10.63;;;9.63;;
2750;SDS011;1383;48.362;10.908;2023-06-26T00:10:40;10.67;;;9.17;;
2750;SDS011;1383;48.362;10.908;2023-06-26T00:13:07;10.90;;;9.60;;
2750;SDS011;1383;48.362;10.908;2023-06-26T00:15:34;11.30;;;9.60;;
2750;SDS011;1383;48.362;10.908;2023-06-26T00:18:01;9.80;;;8.80;;
2750;SDS011;1383;48.362;10.908;2023-06-26T00:20:30;9.80;;;8.80;;
2750;SDS011;1383;48.362;10.908;2023-06-26T00:23:00;10.80;;;9.70;;
2750;SDS011;1383;48.362;10.908;2023-06-26T00:25:27;11.20;;;10.10;;
2750;SDS011;1383;48.362;10.908;2023-06-26T00:27:54;9.90;;;8.90;;
2750;SDS011;1383;48.362;10.908;2023-06-26T00:30:21;10.63;;;9.47;;
2750;SDS011;1383;48.362;10.908;2023-06-26T00:32:48;10.97;;;9.47;;
2750;SDS011;1383;48.362;10.908;2023-06-26T00:35:15;11.43;;;10.00;;
2750;SDS011;1383;48.362;10.908;2023-06-26T00:37:41;9.97;;;8.93;;
2750;SDS011;1383;48.362;10.908;2023-06-26T00:40:08;10.50;;;9.20;;
2750;SDS011;1383;48.362;10.908;2023-06-26T00:42:36;9.77;;;8.43;;
2750;SDS011;1383;48.362;10.908;2023-06-26T00:45:03;10.27;;;9.00;;
2750;SDS011;1383;48.362;10.908;2023-06-26T00:47:30;10.57;;;9.50;;
2750;SDS011;1383;48.362;10.908;2023-06-26T00:49:57;11.97;;;9.10;;
2750;SDS011;1383;48.362;10.908;2023-06-26T00:52:24;12.23;;;11.00;;
2750;SDS011;1383;48.362;10.908;2023-06-26T00:54:52;9.80;;;8.80;;
2750;SDS011;1383;48.362;10.908;2023-06-26T00:57:19;12.23;;;9.03;;
2750;SDS011;1383;48.362;10.908;2023-06-26T00:59:46;11.77;;;9.23;;
2750;SDS011;1383;48.362;10.908;2023-06-26T01:02:13;11.43;;;10.23;;
2750;SDS011;1383;48.362;10.908;2023-06-26T01:04:47;10.10;;;8.77;;
2750;SDS011;1383;48.362;10.908;2023-06-26T01:07:15;11.67;;;9.23;;
2750;SDS011;1383;48.362;10.908;2023-06-26T01:09:48;10.57;;;9.47;;
2750;SDS011;1383;48.362;10.908;2023-06-26T01:12:15;11.80;;;10.00;;
2750;SDS011;1383;48.362;10.908;2023-06-26T01:14:42;11.30;;;9.73;;
2750;SDS011;1383;48.362;10.908;2023-06-26T01:17:09;12.93;;;10.87;;
2750;SDS011;1383;48.362;10.908;2023-06-26T01:19:41;10.73;;;9.40;;
2750;SDS011;1383;48.362;10.908;2023-06-26T01:22:19;13.07;;;11.70;;
2750;SDS011;1383;48.362;10.908;2023-06-26T01:27:30;11.77;;;10.23;;
2750;SDS011;1383;48.362;10.908;2023-06-26T01:29:59;13.23;;;9.77;;
2750;SDS011;1383;48.362;10.908;2023-06-26T01:32:30;12.43;;;10.10;;
2750;SDS011;1383;48.362;10.908;2023-06-26T01:34:58;14.20;;;10.40;;
2750;SDS011;1383;48.362;10.908;2023-06-26T01:37:25;11.27;;;10.07;;
2750;SDS011;1383;48.362;10.908;2023-06-26T01:39:52;11.57;;;10.37;;
2750;SDS011;1383;48.362;10.908;2023-06-26T01:42:19;10.53;;;9.43;;
2750;SDS011;1383;48.362;10.908;2023-06-26T01:44:46;11.50;;;9.87;;
2750;SDS011;1383;48.362;10.908;2023-06-26T01:47:18;12.40;;;9.00;;
2750;SDS011;1383;48.362;10.908;2023-06-26T01:53:25;12.47;;;10.50;;
2750;SDS011;1383;48.362;10.908;2023-06-26T01:58:02;11.30;;;10.13;;
2750;SDS011;1383;48.362;10.908;2023-06-26T02:00:29;11.13;;;9.87;;
2750;SDS011;1383;48.362;10.908;2023-06-26T02:02:58;11.27;;;10.17;;
2750;SDS011;1383;48.362;10.908;2023-06-26T02:05:25;13.70;;;10.40;;
2750;SDS011;1383;48.362;10.908;2023-06-26T02:07:52;11.20;;;9.67;;
2750;SDS011;1383;48.362;10.908;2023-06-26T02:10:19;11.53;;;10.23;;
2750;SDS011;1383;48.362;10.908;2023-06-26T02:12:45;11.17;;;9.87;;
2750;SDS011;1383;48.362;10.908;2023-06-26T02:15:12;10.57;;;9.37;;
2750;SDS011;1383;48.362;10.908;2023-06-26T02:17:39;13.10;;;10.70;;
2750;SDS011;1383;48.362;10.908;2023-06-26T02:20:06;12.97;;;10.90;;
2750;SDS011;1383;48.362;10.908;2023-06-26T02:22:36;10.90;;;9.80;;
2750;SDS011;1383;48.362;10.908;2023-06-26T02:25:03;13.63;;;10.60;;
2750;SDS011;1383;48.362;10.908;2023-06-26T02:27:30;11.67;;;10.40;;
2750;SDS011;1383;48.362;10.908;2023-06-26T02:29:57;12.63;;;10.23;;
2750;SDS011;1383;48.362;10.908;2023-06-26T02:32:24;11.53;;;10.33;;
2750;SDS011;1383;48.362;10.908;2023-06-26T02:34:51;10.33;;;9.27;;
2750;SDS011;1383;48.362;10.908;2023-06-26T02:37:18;12.20;;;11.00;;
2750;SDS011;1383;48.362;10.908;2023-06-26T02:39:45;12.80;;;9.60;;
2750;SDS011;1383;48.362;10.908;2023-06-26T02:42:12;12.20;;;10.07;;
2750;SDS011;1383;48.362;10.908;2023-06-26T02:44:39;13.00;;;10.30;;
2750;SDS011;1383;48.362;10.908;2023-06-26T02:47:06;13.20;;;11.10;;
2750;SDS011;1383;48.362;10.908;2023-06-26T02:49:33;11.40;;;10.30;;
2750;SDS011;1383;48.362;10.908;2023-06-26T02:52:00;14.60;;;10.97;;
2750;SDS011;1383;48.362;10.908;2023-06-26T02:54:27;13.57;;;11.33;;
2750;SDS011;1383;48.362;10.908;2023-06-26T02:56:53;13.27;;;10.37;;
2750;SDS011;1383;48.362;10.908;2023-06-26T02:59:20;13.27;;;10.40;;
2750;SDS011;1383;48.362;10.908;2023-06-26T03:01:47;11.30;;;10.10;;
2750;SDS011;1383;48.362;10.908;2023-06-26T03:04:14;11.00;;;9.00;;
2750;SDS011;1383;48.362;10.908;2023-06-26T03:06:41;11.33;;;9.37;;
2750;SDS011;1383;48.362;10.908;2023-06-26T03:09:08;12.10;;;10.40;;
2750;SDS011;1383;48.362;10.908;2023-06-26T03:11:35;13.00;;;10.70;;
2750;SDS011;1383;48.362;10.908;2023-06-26T03:14:02;12.30;;;10.00;;
2750;SDS011;1383;48.362;10.908;2023-06-26T03:16:29;12.30;;;11.00;;
2750;SDS011;1383;48.362;10.908;2023-06-26T03:18:57;11.67;;;9.20;;
2750;SDS011;1383;48.362;10.908;2023-06-26T03:21:24;13.47;;;10.80;;
2750;SDS011;1383;48.362;10.908;2023-06-26T03:23:51;12.13;;;9.93;;
2750;SDS011;1383;48.362;10.908;2023-06-26T03:26:18;11.57;;;10.20;;
2750;SDS011;1383;48.362;10.908;2023-06-26T03:28:45;13.10;;;11.80;;
2750;SDS011;1383;48.362;10.908;2023-06-26T03:31:12;11.17;;;10.07;;
2750;SDS011;1383;48.362;10.908;2023-06-26T03:33:40;11.00;;;9.80;;
2750;SDS011;1383;48.362;10.908;2023-06-26T03:36:07;10.90;;;9.80;;
2750;SDS011;1383;48.362;10.908;2023-06-26T03:38:34;12.13;;;10.60;;
2750;SDS011;1383;48.362;10.908;2023-06-26T03:41:01;12.40;;;10.40;;
2750;SDS011;1383;48.362;10.908;2023-06-26T03:43:28;12.70;;;10.23;;
2750;SDS011;1383;48.362;10.908;2023-06-26T03:45:55;15.20;;;10.37;;
2750;SDS011;1383;48.362;10.908;2023-06-26T03:48:22;11.97;;;9.87;;
2750;SDS011;1383;48.362;10.908;2023-06-26T03:50:49;11.23;;;9.00;;
2750;SDS011;1383;48.362;10.908;2023-06-26T03:53:17;12.83;;;10.00;;
2750;SDS011;1383;48.362;10.908;2023-06-26T03:55:43;14.63;;;10.57;;
2750;SDS011;1383;48.362;10.908;2023-06-26T03:58:10;10.43;;;9.10;;
2750;SDS011;1383;48.362;10.908;2023-06-26T04:00:37;11.67;;;9.00;;
2750;SDS011;1383;48.362;10.908;2023-06-26T04:03:04;10.70;;;9.60;;
2750;SDS011;1383;48.362;10.908;2023-06-26T04:05:31;13.63;;;9.90;;
2750;SDS011;1383;48.362;10.908;2023-06-26T04:07:58;11.97;;;10.77;;
2750;SDS011;1383;48.362;10.908;2023-06-26T04:10:25;13.10;;;10.33;;
2750;SDS011;1383;48.362;10.908;2023-06-26T04:12:52;11.73;;;10.53;;
2750;SDS011;1383;48.362;10.908;2023-06-26T04:15:19;12.73;;;10.50;;
2750;SDS011;1383;48.362;10.908;2023-06-26T04:17:46;11.67;;;10.43;;
2750;SDS011;1383;48.362;10.908;2023-06-26T04:20:13;12.40;;;10.80;;
2750;SDS011;1383;48.362;10.908;2023-06-26T04:22:41;11.53;;;10.30;;
2750;SDS011;1383;48.362;10.908;2023-06-26T04:25:07;12.40;;;9.80;;
2750;SDS011;1383;48.362;10.908;2023-06-26T04:27:34;11.00;;;9.80;;
2750;SDS011;1383;48.362;10.908;2023-06-26T04:30:04;13.83;;;10.67;;
2750;SDS011;1383;48.362;10.908;2023-06-26T04:32:32;12.80;;;10.60;;
2750;SDS011;1383;48.362;10.908;2023-06-26T04:34:59;11.30;;;9.57;;
2750;SDS011;1383;48.362;10.908;2023-06-26T04:37:26;12.40;;;10.07;;
2750;SDS011;1383;48.362;10.908;2023-06-26T04:39:53;11.47;;;9.20;;
2750;SDS011;1383;48.362;10.908;2023-06-26T04:42:20;11.20;;;9.80;;
2750;SDS011;1383;48.362;10.908;2023-06-26T04:44:48;11.23;;;10.13;;
2750;SDS011;1383;48.362;10.908;2023-06-26T04:47:15;11.63;;;10.50;;
2750;SDS011;1383;48.362;10.908;2023-06-26T04:49:43;11.97;;;10.47;;
2750;SDS011;1383;48.362;10.908;2023-06-26T04:52:12;13.27;;;11.07;;
2750;SDS011;1383;48.362;10.908;2023-06-26T04:54:47;12.83;;;11.53;;
2750;SDS011;1383;48.362;10.908;2023-06-26T04:57:14;12.80;;;10.80;;
2750;SDS011;1383;48.362;10.908;2023-06-26T04:59:41;11.30;;;10.20;;
2750;SDS011;1383;48.362;10.908;2023-06-26T05:02:08;11.80;;;10.70;;
2750;SDS011;1383;48.362;10.908;2023-06-26T05:04:35;14.93;;;12.80;;
2750;SDS011;1383;48.362;10.908;2023-06-26T05:07:02;20.70;;;15.07;;
2750;SDS011;1383;48.362;10.908;2023-06-26T05:09:29;13.97;;;11.73;;
2750;SDS011;1383;48.362;10.908;2023-06-26T05:11:56;13.90;;;10.40;;
2750;SDS011;1383;48.362;10.908;2023-06-26T05:14:23;11.37;;;10.17;;
2750;SDS011;1383;48.362;10.908;2023-06-26T05:16:50;10.80;;;9.10;;
2750;SDS011;1383;48.362;10.908;2023-06-26T05:19:17;11.93;;;10.80;;
2750;SDS011;1383;48.362;10.908;2023-06-26T05:21:44;10.93;;;9.87;;
2750;SDS011;1383;48.362;10.908;2023-06-26T05:24:12;11.90;;;10.70;;
2750;SDS011;1383;48.362;10.908;2023-06-26T05:26:41;10.33;;;9.10;;
2750;SDS011;1383;48.362;10.908;2023-06-26T05:29:09;10.60;;;9.60;;
2750;SDS011;1383;48.362;10.908;2023-06-26T05:31:40;10.60;;;9.50;;
2750;SDS011;1383;48.362;10.908;2023-06-26T05:34:08;12.40;;;10.13;;
2750;SDS011;1383;48.362;10.908;2023-06-26T05:36:37;12.43;;;11.13;;
2750;SDS011;1383;48.362;10.908;2023-06-26T05:39:05;15.90;;;13.73;;
2750;SDS011;1383;48.362;10.908;2023-06-26T05:41:33;13.73;;;12.23;;
2750;SDS011;1383;48.362;10.908;2023-06-26T05:44:00;11.90;;;10.70;;
2750;SDS011;1383;48.362;10.908;2023-06-26T05:46:27;10.23;;;9.23;;
2750;SDS011;1383;48.362;10.908;2023-06-26T05:48:54;10.30;;;9.40;;
2750;SDS011;1383;48.362;10.908;2023-06-26T05:51:21;10.73;;;8.90;;
2750;SDS011;1383;48.362;10.908;2023-06-26T05:53:48;9.90;;;9.00;;
2750;SDS011;1383;48.362;10.908;2023-06-26T05:56:16;10.30;;;9.13;;
2750;SDS011;1383;48.362;10.908;2023-06-26T05:58:45;9.73;;;8.73;;
2750;SDS011;1383;48.362;10.908;2023-06-26T06:01:12;10.90;;;9.80;;
2750;SDS011;1383;48.362;10.908;2023-06-26T06:03:39;10.03;;;9.03;;
2750;SDS011;1383;48.362;10.908;2023-06-26T06:06:07;10.70;;;9.70;;
2750;SDS011;1383;48.362;10.908;2023-06-26T06:08:34;9.93;;;8.93;;
2750;SDS011;1383;48.362;10.908;2023-06-26T06:11:01;10.77;;;9.67;;
2750;SDS011;1383;48.362;10.908;2023-06-26T06:13:28;12.03;;;9.77;;
2750;SDS011;1383;48.362;10.908;2023-06-26T06:15:55;9.50;;;8.67;;
2750;SDS011;1383;48.362;10.908;2023-06-26T06:18:22;8.90;;;8.10;;
2750;SDS011;1383;48.362;10.908;2023-06-26T06:20:49;8.60;;;7.80;;
2750;SDS011;1383;48.362;10.908;2023-06-26T06:23:16;10.23;;;9.20;;
2750;SDS011;1383;48.362;10.908;2023-06-26T06:25:43;9.63;;;8.83;;
2750;SDS011;1383;48.362;10.908;2023-06-26T06:28:10;9.47;;;8.00;;
2750;SDS011;1383;48.362;10.908;2023-06-26T06:30:37;9.57;;;8.60;;
2750;SDS011;1383;48.362;10.908;2023-06-26T06:33:11;9.33;;;8.43;;
2750;SDS011;1383;48.362;10.908;2023-06-26T06:35:38;9.90;;;8.67;;
2750;SDS011;1383;48.362;10.908;2023-06-26T06:38:05;9.03;;;8.17;;
2750;SDS011;1383;48.362;10.908;2023-06-26T06:40:32;10.03;;;8.83;;
2750;SDS011;1383;48.362;10.908;2023-06-26T06:42:59;11.17;;;10.17;;
2750;SDS011;1383;48.362;10.908;2023-06-26T06:45:26;10.10;;;9.20;;
2750;SDS011;1383;48.362;10.908;2023-06-26T06:47:53;9.43;;;8.40;;
2750;SDS011;1383;48.362;10.908;2023-06-26T06:50:20;9.60;;;8.70;;
2750;SDS011;1383;48.362;10.908;2023-06-26T06:52:47;9.50;;;8.57;;
2750;SDS011;1383;48.362;10.908;2023-06-26T06:55:14;10.60;;;9.60;;
2750;SDS011;1383;48.362;10.908;2023-06-26T06:57:41;10.53;;;9.43;;
2750;SDS011;1383;48.362;10.908;2023-06-26T07:00:08;8.67;;;7.90;;
2750;SDS011;1383;48.362;10.908;2023-06-26T07:02:42;10.00;;;9.03;;
2750;SDS011;1383;48.362;10.908;2023-06-26T07:05:11;9.80;;;8.80;;
2750;SDS011;1383;48.362;10.908;2023-06-26T07:07:38;9.00;;;8.10;;
2750;SDS011;1383;48.362;10.908;2023-06-26T07:10:10;10.90;;;9.80;;
2750;SDS011;1383;48.362;10.908;2023-06-26T07:12:38;9.83;;;8.87;;
2750;SDS011;1383;48.362;10.908;2023-06-26T07:15:06;11.30;;;9.90;;
2750;SDS011;1383;48.362;10.908;2023-06-26T07:17:33;8.73;;;7.83;;
2750;SDS011;1383;48.362;10.908;2023-06-26T07:20:01;9.07;;;8.27;;
2750;SDS011;1383;48.362;10.908;2023-06-26T07:22:35;8.87;;;8.07;;
2750;SDS011;1383;48.362;10.908;2023-06-26T07:25:02;8.87;;;8.07;;
2750;SDS011;1383;48.362;10.908;2023-06-26T07:27:30;8.77;;;7.93;;
2750;SDS011;1383;48.362;10.908;2023-06-26T07:29:57;8.83;;;8.03;;
2750;SDS011;1383;48.362;10.908;2023-06-26T07:32:24;8.77;;;8.00;;
2750;SDS011;1383;48.362;10.908;2023-06-26T07:34:51;9.17;;;7.73;;
2750;SDS011;1383;48.362;10.908;2023-06-26T07:37:18;8.07;;;7.37;;
2750;SDS011;1383;48.362;10.908;2023-06-26T07:39:44;8.07;;;7.47;;
2750;SDS011;1383;48.362;10.908;2023-06-26T07:42:12;8.80;;;8.10;;
2750;SDS011;1383;48.362;10.908;2023-06-26T07:44:38;8.47;;;7.77;;
2750;SDS011;1383;48.362;10.908;2023-06-26T07:47:05;8.40;;;7.70;;
2750;SDS011;1383;48.362;10.908;2023-06-26T07:49:33;8.83;;;8.03;;
2750;SDS011;1383;48.362;10.908;2023-06-26T07:51:59;8.23;;;7.53;;
2750;SDS011;1383;48.362;10.908;2023-06-26T07:54:26;9.43;;;8.10;;
2750;SDS011;1383;48.362;10.908;2023-06-26T07:57:00;8.23;;;7.47;;
2750;SDS011;1383;48.362;10.908;2023-06-26T07:59:30;8.97;;;8.17;;
2750;SDS011;1383;48.362;10.908;2023-06-26T08:01:57;8.37;;;7.67;;
2750;SDS011;1383;48.362;10.908;2023-06-26T08:04:25;8.50;;;7.70;;
2750;SDS011;1383;48.362;10.908;2023-06-26T08:06:55;7.60;;;6.90;;
2750;SDS011;1383;48.362;10.908;2023-06-26T08:09:24;8.53;;;7.70;;
2750;SDS011;1383;48.362;10.908;2023-06-26T08:11:54;7.70;;;7.00;;
2750;SDS011;1383;48.362;10.908;2023-06-26T08:14:22;8.93;;;8.03;;
2750;SDS011;1383;48.362;10.908;2023-06-26T08:16:49;9.07;;;8.07;;
2750;SDS011;1383;48.362;10.908;2023-06-26T08:19:16;8.50;;;7.80;;
2750;SDS011;1383;48.362;10.908;2023-06-26T08:21:44;7.30;;;6.80;;
2750;SDS011;1383;48.362;10.908;2023-06-26T08:24:12;8.73;;;8.00;;
2750;SDS011;1383;48.362;10.908;2023-06-26T08:26:39;7.87;;;7.27;;
2750;SDS011;1383;48.362;10.908;2023-06-26T08:29:06;7.10;;;6.50;;
2750;SDS011;1383;48.362;10.908;2023-06-26T08:31:38;8.60;;;7.90;;
2750;SDS011;1383;48.362;10.908;2023-06-26T08:34:06;6.57;;;6.10;;
2750;SDS011;1383;48.362;10.908;2023-06-26T08:36:34;8.37;;;7.27;;
2750;SDS011;1383;48.362;10.908;2023-06-26T08:39:01;7.20;;;6.60;;
2750;SDS011;1383;48.362;10.908;2023-06-26T08:41:29;8.27;;;7.57;;
2750;SDS011;1383;48.362;10.908;2023-06-26T08:43:56;7.40;;;6.60;;
2750;SDS011;1383;48.362;10.908;2023-06-26T08:46:23;7.80;;;7.10;;
2750;SDS011;1383;48.362;10.908;2023-06-26T08:48:57;7.97;;;7.37;;
2750;SDS011;1383;48.362;10.908;2023-06-26T08:51:47;7.43;;;6.83;;
2750;SDS011;1383;48.362;10.908;2023-06-26T08:54:29;7.40;;;6.80;;
2750;SDS011;1383;48.362;10.908;2023-06-26T08:57:00;7.77;;;7.07;;
2750;SDS011;1383;48.362;10.908;2023-06-26T08:59:28;7.17;;;6.63;;
2750;SDS011;1383;48.362;10.908;2023-06-26T09:01:55;7.70;;;7.00;;
2750;SDS011;1383;48.362;10.908;2023-06-26T09:04:22;7.67;;;7.10;;
2750;SDS011;1383;48.362;10.908;2023-06-26T09:06:50;6.53;;;6.03;;
2750;SDS011;1383;48.362;10.908;2023-06-26T09:09:17;6.80;;;6.30;;
2750;SDS011;1383;48.362;10.908;2023-06-26T09:11:43;7.50;;;6.90;;
2750;SDS011;1383;48.362;10.908;2023-06-26T09:14:11;6.80;;;6.17;;
2750;SDS011;1383;48.362;10.908;2023-06-26T09:16:43;7.57;;;6.97;;
2750;SDS011;1383;48.362;10.908;2023-06-26T09:19:10;7.73;;;7.13;;
2750;SDS011;1383;48.362;10.908;2023-06-26T09:21:41;6.70;;;6.20;;
2750;SDS011;1383;48.362;10.908;2023-06-26T09:24:10;8.13;;;7.53;;
2750;SDS011;1383;48.362;10.908;2023-06-26T09:26:37;7.37;;;6.73;;
2750;SDS011;1383;48.362;10.908;2023-06-26T09:29:05;8.33;;;6.70;;
2750;SDS011;1383;48.362;10.908;2023-06-26T09:31:33;7.13;;;6.63;;
2750;SDS011;1383;48.362;10.908;2023-06-26T09:34:07;6.87;;;6.33;;
2750;SDS011;1383;48.362;10.908;2023-06-26T09:36:34;6.80;;;6.30;;
2750;SDS011;1383;48.362;10.908;2023-06-26T09:39:06;6.53;;;6.10;;
2750;SDS011;1383;48.362;10.908;2023-06-26T09:41:40;6.43;;;5.93;;
2750;SDS011;1383;48.362;10.908;2023-06-26T09:44:10;6.77;;;6.27;;
2750;SDS011;1383;48.362;10.908;2023-06-26T09:46:39;6.67;;;6.17;;
2750;SDS011;1383;48.362;10.908;2023-06-26T09:49:07;6.77;;;6.27;;
2750;SDS011;1383;48.362;10.908;2023-06-26T09:51:38;6.47;;;5.83;;
2750;SDS011;1383;48.362;10.908;2023-06-26T09:54:08;7.17;;;5.70;;
2750;SDS011;1383;48.362;10.908;2023-06-26T09:56:36;6.50;;;6.00;;
2750;SDS011;1383;48.362;10.908;2023-06-26T09:59:04;6.57;;;6.00;;
2750;SDS011;1383;48.362;10.908;2023-06-26T10:01:32;7.00;;;6.40;;
2750;SDS011;1383;48.362;10.908;2023-06-26T10:04:00;6.87;;;6.37;;
2750;SDS011;1383;48.362;10.908;2023-06-26T10:06:39;6.40;;;5.90;;
2750;SDS011;1383;48.362;10.908;2023-06-26T10:09:11;7.70;;;7.03;;
2750;SDS011;1383;48.362;10.908;2023-06-26T10:11:41;6.40;;;5.90;;
2750;SDS011;1383;48.362;10.908;2023-06-26T10:14:16;6.67;;;6.10;;
2750;SDS011;1383;48.362;10.908;2023-06-26T10:16:46;6.33;;;5.87;;
2750;SDS011;1383;48.362;10.908;2023-06-26T10:19:16;6.93;;;6.23;;
2750;SDS011;1383;48.362;10.908;2023-06-26T10:21:51;6.93;;;6.00;;
2750;SDS011;1383;48.362;10.908;2023-06-26T10:24:20;7.63;;;7.03;;
2750;SDS011;1383;48.362;10.908;2023-06-26T10:26:50;8.40;;;7.80;;
2750;SDS011;1383;48.362;10.908;2023-06-26T10:29:21;7.37;;;6.77;;
2750;SDS011;1383;48.362;10.908;2023-06-26T10:31:51;6.43;;;5.93;;
2750;SDS011;1383;48.362;10.908;2023-06-26T10:34:21;6.37;;;5.77;;
2750;SDS011;1383;48.362;10.908;2023-06-26T10:36:48;7.17;;;6.67;;
2750;SDS011;1383;48.362;10.908;2023-06-26T10:39:32;6.00;;;5.60;;
2750;SDS011;1383;48.362;10.908;2023-06-26T10:42:12;6.93;;;6.30;;
2750;SDS011;1383;48.362;10.908;2023-06-26T10:44:40;6.70;;;6.17;;
2750;SDS011;1383;48.362;10.908;2023-06-26T10:47:09;6.30;;;5.80;;
2750;SDS011;1383;48.362;10.908;2023-06-26T10:49:37;6.77;;;6.17;;
2750;SDS011;1383;48.362;10.908;2023-06-26T10:52:08;6.77;;;6.23;;
2750;SDS011;1383;48.362;10.908;2023-06-26T10:54:35;5.87;;;5.37;;
2750;SDS011;1383;48.362;10.908;2023-06-26T10:57:04;6.97;;;6.37;;
2750;SDS011;1383;48.362;10.908;2023-06-26T10:59:34;6.70;;;6.20;;
2750;SDS011;1383;48.362;10.908;2023-06-26T11:02:01;6.13;;;5.73;;
2750;SDS011;1383;48.362;10.908;2023-06-26T11:04:42;6.90;;;6.40;;
2750;SDS011;1383;48.362;10.908;2023-06-26T11:07:21;6.97;;;6.37;;
2750;SDS011;1383;48.362;10.908;2023-06-26T11:09:53;6.80;;;6.10;;
2750;SDS011;1383;48.362;10.908;2023-06-26T11:12:34;7.87;;;7.27;;
2750;SDS011;1383;48.362;10.908;2023-06-26T11:15:09;7.60;;;6.90;;
2750;SDS011;1383;48.362;10.908;2023-06-26T11:17:45;7.20;;;6.53;;
2750;SDS011;1383;48.362;10.908;2023-06-26T11:20:15;7.77;;;7.03;;
2750;SDS011;1383;48.362;10.908;2023-06-26T11:22:44;7.87;;;7.30;;
2750;SDS011;1383;48.362;10.908;2023-06-26T11:25:10;8.27;;;7.07;;
2750;SDS011;1383;48.362;10.908;2023-06-26T11:30:08;6.97;;;6.40;;
2750;SDS011;1383;48.362;10.908;2023-06-26T11:32:39;8.10;;;7.40;;
2750;SDS011;1383;48.362;10.908;2023-06-26T11:35:06;7.20;;;6.60;;
2750;SDS011;1383;48.362;10.908;2023-06-26T11:37:35;7.93;;;7.20;;
2750;SDS011;1383;48.362;10.908;2023-06-26T11:40:15;8.20;;;7.50;;
2750;SDS011;1383;48.362;10.908;2023-06-26T11:42:46;8.10;;;7.47;;
2750;SDS011;1383;48.362;10.908;2023-06-26T11:45:13;7.70;;;7.00;;
2750;SDS011;1383;48.362;10.908;2023-06-26T11:47:40;8.07;;;7.37;;
2750;SDS011;1383;48.362;10.908;2023-06-26T11:50:14;8.03;;;7.33;;
2750;SDS011;1383;48.362;10.908;2023-06-26T11:52:44;10.37;;;8.67;;
2750;SDS011;1383;48.362;10.908;2023-06-26T11:55:12;9.17;;;8.37;;
2750;SDS011;1383;48.362;10.908;2023-06-26T11:57:38;7.43;;;6.83;;
2750;SDS011;1383;48.362;10.908;2023-06-26T12:00:14;8.07;;;7.13;;
2750;SDS011;1383;48.362;10.908;2023-06-26T12:02:43;7.20;;;6.60;;
2750;SDS011;1383;48.362;10.908;2023-06-26T12:05:11;8.10;;;7.30;;
2750;SDS011;1383;48.362;10.908;2023-06-26T12:07:41;7.60;;;6.80;;
2750;SDS011;1383;48.362;10.908;2023-06-26T12:10:10;7.70;;;7.00;;
2750;SDS011;1383;48.362;10.908;2023-06-26T12:12:38;7.20;;;6.57;;
2750;SDS011;1383;48.362;10.908;2023-06-26T12:15:06;7.73;;;6.90;;
2750;SDS011;1383;48.362;10.908;2023-06-26T12:17:37;8.10;;;7.20;;
2750;SDS011;1383;48.362;10.908;2023-06-26T12:20:06;6.80;;;6.20;;
2750;SDS011;1383;48.362;10.908;2023-06-26T12:22:48;7.50;;;6.60;;
2750;SDS011;1383;48.362;10.908;2023-06-26T12:25:15;8.20;;;7.03;;
2750;SDS011;1383;48.362;10.908;2023-06-26T12:27:47;7.17;;;6.47;;
2750;SDS011;1383;48.362;10.908;2023-06-26T12:30:14;7.50;;;6.90;;
2750;SDS011;1383;48.362;10.908;2023-06-26T12:32:44;7.27;;;6.60;;
2750;SDS011;1383;48.362;10.908;2023-06-26T12:35:13;7.13;;;6.43;;
2750;SDS011;1383;48.362;10.908;2023-06-26T12:37:42;7.00;;;6.40;;
2750;SDS011;1383;48.362;10.908;2023-06-26T12:40:17;7.10;;;6.50;;
2750;SDS011;1383;48.362;10.908;2023-06-26T12:42:45;7.80;;;7.00;;
2750;SDS011;1383;48.362;10.908;2023-06-26T12:45:13;6.40;;;5.90;;
2750;SDS011;1383;48.362;10.908;2023-06-26T12:48:06;5.87;;;5.47;;
2750;SDS011;1383;48.362;10.908;2023-06-26T12:50:46;7.73;;;7.00;;
2750;SDS011;1383;48.362;10.908;2023-06-26T12:53:14;7.23;;;6.63;;
2750;SDS011;1383;48.362;10.908;2023-06-26T12:55:41;7.30;;;6.60;;
2750;SDS011;1383;48.362;10.908;2023-06-26T12:58:08;7.70;;;7.03;;
2750;SDS011;1383;48.362;10.908;2023-06-26T13:00:38;6.90;;;6.40;;
2750;SDS011;1383;48.362;10.908;2023-06-26T13:03:06;7.50;;;6.90;;
2750;SDS011;1383;48.362;10.908;2023-06-26T13:05:36;8.47;;;6.43;;
2750;SDS011;1383;48.362;10.908;2023-06-26T13:08:03;6.80;;;6.20;;
2750;SDS011;1383;48.362;10.908;2023-06-26T13:10:31;6.97;;;6.40;;
2750;SDS011;1383;48.362;10.908;2023-06-26T13:12:57;7.30;;;6.70;;
2750;SDS011;1383;48.362;10.908;2023-06-26T13:15:24;7.17;;;6.57;;
2750;SDS011;1383;48.362;10.908;2023-06-26T13:17:51;6.77;;;6.17;;
2750;SDS011;1383;48.362;10.908;2023-06-26T13:20:18;6.40;;;5.90;;
2750;SDS011;1383;48.362;10.908;2023-06-26T13:22:45;7.37;;;6.77;;
2750;SDS011;1383;48.362;10.908;2023-06-26T13:25:12;6.90;;;6.40;;
2750;SDS011;1383;48.362;10.908;2023-06-26T13:27:39;7.30;;;6.70;;
2750;SDS011;1383;48.362;10.908;2023-06-26T13:30:06;7.53;;;6.93;;
2750;SDS011;1383;48.362;10.908;2023-06-26T13:32:34;6.80;;;6.30;;
2750;SDS011;1383;48.362;10.908;2023-06-26T13:35:01;7.37;;;6.70;;
2750;SDS011;1383;48.362;10.908;2023-06-26T13:37:28;7.13;;;6.57;;
2750;SDS011;1383;48.362;10.908;2023-06-26T13:39:55;7.77;;;7.17;;
2750;SDS011;1383;48.362;10.908;2023-06-26T13:42:24;8.17;;;7.50;;
2750;SDS011;1383;48.362;10.908;2023-06-26T13:44:51;8.07;;;7.37;;
2750;SDS011;1383;48.362;10.908;2023-06-26T13:47:29;8.27;;;7.60;;
2750;SDS011;1383;48.362;10.908;2023-06-26T13:49:56;8.13;;;7.33;;
2750;SDS011;1383;48.362;10.908;2023-06-26T13:52:24;8.27;;;7.57;;
2750;SDS011;1383;48.362;10.908;2023-06-26T13:54:51;8.07;;;7.30;;
2750;SDS011;1383;48.362;10.908;2023-06-26T13:57:18;7.57;;;6.97;;
2750;SDS011;1383;48.362;10.908;2023-06-26T13:59:48;8.33;;;7.63;;
2750;SDS011;1383;48.362;10.908;2023-06-26T14:02:16;7.70;;;7.10;;
2750;SDS011;1383;48.362;10.908;2023-06-26T14:04:43;7.03;;;6.53;;
2750;SDS011;1383;48.362;10.908;2023-06-26T14:07:10;8.00;;;7.40;;
2750;SDS011;1383;48.362;10.908;2023-06-26T14:09:37;7.30;;;6.70;;
2750;SDS011;1383;48.362;10.908;2023-06-26T14:12:04;7.83;;;7.10;;
2750;SDS011;1383;48.362;10.908;2023-06-26T14:14:33;7.07;;;6.57;;
2750;SDS011;1383;48.362;10.908;2023-06-26T14:17:00;7.57;;;6.87;;
2750;SDS011;1383;48.362;10.908;2023-06-26T14:19:27;7.63;;;6.93;;
2750;SDS011;1383;48.362;10.908;2023-06-26T14:21:54;9.17;;;7.10;;
2750;SDS011;1383;48.362;10.908;2023-06-26T14:24:21;8.23;;;7.53;;
2750;SDS011;1383;48.362;10.908;2023-06-26T14:26:48;8.20;;;7.50;;
2750;SDS011;1383;48.362;10.908;2023-06-26T14:29:15;7.90;;;7.30;;
2750;SDS011;1383;48.362;10.908;2023-06-26T14:34:27;8.43;;;7.73;;
2750;SDS011;1383;48.362;10.908;2023-06-26T14:36:53;8.43;;;7.73;;
2750;SDS011;1383;48.362;10.908;2023-06-26T14:39:21;8.57;;;7.63;;
2750;SDS011;1383;48.362;10.908;2023-06-26T14:41:48;9.00;;;8.30;;
2750;SDS011;1383;48.362;10.908;2023-06-26T14:44:16;8.20;;;7.60;;
2750;SDS011;1383;48.362;10.908;2023-06-26T14:46:43;7.90;;;7.30;;
2750;SDS011;1383;48.362;10.908;2023-06-26T14:49:10;8.60;;;7.90;;
2750;SDS011;1383;48.362;10.908;2023-06-26T14:51:37;7.87;;;7.17;;
2750;SDS011;1383;48.362;10.908;2023-06-26T14:54:06;10.43;;;9.53;;
2750;SDS011;1383;48.362;10.908;2023-06-26T14:56:32;9.50;;;8.70;;
2750;SDS011;1383;48.362;10.908;2023-06-26T14:58:59;9.33;;;8.57;;
2750;SDS011;1383;48.362;10.908;2023-06-26T15:01:26;8.53;;;7.83;;
2750;SDS011;1383;48.362;10.908;2023-06-26T15:03:54;9.10;;;8.20;;
2750;SDS011;1383;48.362;10.908;2023-06-26T15:06:21;7.80;;;7.20;;
2750;SDS011;1383;48.362;10.908;2023-06-26T15:08:48;8.90;;;8.10;;
2750;SDS011;1383;48.362;10.908;2023-06-26T15:11:15;10.40;;;8.50;;
2750;SDS011;1383;48.362;10.908;2023-06-26T15:13:42;9.37;;;8.57;;